ニューヨーク/JFK の空港の天気 - METARとTAF

ジョン・F・ケネディ国際空港 ( KJFK / JFK ) - アメリカ ニューヨーク州ニューヨーク
飛行場実況気象(Metar)
観測時間05/25 04:51 EDT (05/25 08:51 UTC)
風向・風速南南西 4m/s
視程10km以上
天気現象
なし
気温16.1℃
湿度83%
気圧1017.9hPa
METARKJFK 250851Z 21008KT 10SM CLR 16/13 A3006 RMK AO2 SLP179 T01610133 56010
過去の天気等 Google飛行場航空写真 Wunderground天気予報

過去48時間のMETAR

飛行場予報(TAF)
発表時間: 5/25 04:37 EDT (5/25 08:37 UTC)
予報対象時間: 25日5時 EDT ~ 26日8時 EDT
風向・風速南西 4m/s
視程10km以上
なし
25日10時 EDT から
風向・風速南西 6m/s 瞬間風速 10m/s
視程10km以上
少しの雲 雲底高度 7,620m
25日13時 EDT から
風向・風速南南西 9m/s 瞬間風速 13m/s
視程10km以上
全天の4割程度の雲 雲底高度 6,100m
25日17時 EDT から
風向・風速南 12m/s 瞬間風速 15m/s
視程10km以上
少しの雲 雲底高度 7,620m
25日20時 EDT から
風向・風速南南西 9m/s 瞬間風速 13m/s
視程10km以上
少しの雲 雲底高度 1,830m
25日22時 EDT から
風向・風速南西 7m/s 瞬間風速 10m/s
視程10km以上
少しの雲 雲底高度 1,830m
26日0時 EDT から
風向・風速南西 5m/s
視程10km以上
少しの雲 雲底高度 1,830m
KJFK 250837Z 2509/2612 22008KT P6SM SKC
FM251400 22012G19KT P6SM FEW250
FM251700 20018G26KT P6SM SCT200
FM252100 19023G29KT P6SM FEW250
FM260000 21018G25KT P6SM FEW060
FM260200 22013G20KT P6SM FEW060
FM260400 22009KT P6SM FEW060